• images/banner/banner1.jpg
  • images/banner/banner2.jpg

Team Member Login

Aviation Weather

[source: ADDS]
METAR
EGVN 280250Z 03003KT 3000 BR FEW013 14/14 Q1017 YLO1 TEMPO 2000 YLO2 =
TAF
TAF AMD EGVN 280220Z 2803/2903 VRB05KT 5000 BR SCT040 TEMPO 2803/2810 3000 SCT007 PROB30 2803/2807 1200 SCT002 BECMG 2808/2811 9999 NSW PROB40 TEMPO 2810/2813 SCT018 PROB30 TEMPO 2813/2819 3000 +SHRA SCT015 SCT025CB PROB40 2823/2903 BKN009 =